createdAt,value
2022-10-23T00:03:00.319Z,16.31
2022-10-23T00:06:05.211Z,16.33
2022-10-23T00:09:11.010Z,16.35
2022-10-23T00:12:14.415Z,16.35
2022-10-23T00:15:20.679Z,16.41
2022-10-23T00:18:25.614Z,16.31
2022-10-23T00:21:29.433Z,16.28
2022-10-23T00:24:32.727Z,16.31
2022-10-23T00:27:36.679Z,16.28
2022-10-23T00:30:40.038Z,16.30
2022-10-23T00:33:45.839Z,16.29
2022-10-23T00:36:49.390Z,16.30
2022-10-23T00:39:53.440Z,16.29
2022-10-23T00:42:56.923Z,16.26
2022-10-23T00:46:00.815Z,16.23
2022-10-23T00:49:07.411Z,16.21
2022-10-23T00:52:14.468Z,16.17
2022-10-23T00:55:20.768Z,16.15
2022-10-23T00:58:24.743Z,16.09
2022-10-23T01:01:28.417Z,16.06
2022-10-23T01:04:34.429Z,16.01
2022-10-23T01:07:51.516Z,15.98
2022-10-23T01:11:05.090Z,15.98
2022-10-23T01:14:24.538Z,15.92
2022-10-23T01:17:39.630Z,15.99
2022-10-23T01:20:54.443Z,15.92
2022-10-23T01:24:26.813Z,15.84
2022-10-23T01:27:37.104Z,15.74
2022-10-23T01:30:45.464Z,15.73
2022-10-23T01:33:57.564Z,15.70
2022-10-23T01:37:08.121Z,15.70
2022-10-23T01:40:21.430Z,15.71
2022-10-23T01:43:31.592Z,15.71
2022-10-23T01:46:37.590Z,15.63
2022-10-23T01:49:45.763Z,15.62
2022-10-23T01:52:49.186Z,15.62
2022-10-23T01:55:56.657Z,15.71
2022-10-23T01:59:06.739Z,15.62
2022-10-23T02:02:16.529Z,15.68
2022-10-23T02:05:25.387Z,15.50
2022-10-23T02:08:29.249Z,15.58
2022-10-23T02:11:38.880Z,15.58
2022-10-23T02:14:51.724Z,15.60
2022-10-23T02:18:04.439Z,15.64
2022-10-23T02:21:12.598Z,15.72
2022-10-23T02:24:21.440Z,15.62
2022-10-23T02:27:30.613Z,15.54
2022-10-23T02:30:39.420Z,15.58
2022-10-23T02:33:48.859Z,15.65
2022-10-23T02:36:52.422Z,15.69
2022-10-23T02:39:58.944Z,15.71
2022-10-23T02:43:15.031Z,15.72
2022-10-23T02:46:29.809Z,15.62
2022-10-23T02:49:41.228Z,15.67
2022-10-23T02:52:57.346Z,15.74
2022-10-23T02:56:08.599Z,15.73
2022-10-23T02:59:21.452Z,15.77
2022-10-23T03:05:40.732Z,15.82
2022-10-23T03:08:45.556Z,15.89
2022-10-23T03:11:49.225Z,15.91
2022-10-23T03:14:52.960Z,15.96
2022-10-23T03:17:58.020Z,16.01
2022-10-23T03:21:01.427Z,16.02
2022-10-23T03:24:05.640Z,16.02
2022-10-23T03:27:14.863Z,16.03
2022-10-23T03:30:18.962Z,16.04
2022-10-23T03:33:28.014Z,16.07
2022-10-23T03:36:31.647Z,16.02
2022-10-23T03:39:35.287Z,16.05
2022-10-23T03:42:39.192Z,16.03
2022-10-23T03:45:42.637Z,16.03
2022-10-23T03:48:47.927Z,16.05
2022-10-23T03:51:52.739Z,15.96
2022-10-23T03:54:57.841Z,15.96
2022-10-23T03:58:01.365Z,16.00
2022-10-23T04:01:04.982Z,16.01
2022-10-23T04:04:09.951Z,15.81
2022-10-23T04:07:13.842Z,15.78
2022-10-23T04:10:17.318Z,15.84
2022-10-23T04:13:21.190Z,15.92
2022-10-23T04:16:25.231Z,15.97
2022-10-23T04:19:30.205Z,15.86
2022-10-23T04:22:37.050Z,15.93
2022-10-23T04:25:41.493Z,15.96
2022-10-23T04:28:45.259Z,15.97
2022-10-23T04:31:49.063Z,15.92
2022-10-23T04:34:55.074Z,15.98
2022-10-23T04:37:59.939Z,15.99
2022-10-23T04:41:03.498Z,15.93
2022-10-23T04:44:07.202Z,15.99
2022-10-23T04:47:16.952Z,15.98
2022-10-23T04:50:32.970Z,15.96
2022-10-23T04:53:52.114Z,15.91
2022-10-23T04:57:19.665Z,15.91
2022-10-23T05:00:37.663Z,15.54
2022-10-23T05:03:41.344Z,15.68
2022-10-23T05:06:46.396Z,15.66
2022-10-23T05:10:12.789Z,15.77
2022-10-23T05:13:24.429Z,15.74
2022-10-23T05:16:36.496Z,15.70
2022-10-23T05:19:44.906Z,15.72
2022-10-23T05:22:54.147Z,15.50
2022-10-23T05:26:03.193Z,15.48
2022-10-23T05:29:09.259Z,15.34
2022-10-23T05:32:15.939Z,15.51
2022-10-23T05:35:23.530Z,15.45
2022-10-23T05:38:33.751Z,15.45
2022-10-23T05:41:42.574Z,15.32
2022-10-23T05:44:46.324Z,15.15
2022-10-23T05:48:30.067Z,15.35
2022-10-23T05:51:56.360Z,15.43
2022-10-23T05:55:19.574Z,15.45
2022-10-23T05:58:35.154Z,15.32
2022-10-23T06:01:50.378Z,15.45
2022-10-23T06:05:08.834Z,15.50
2022-10-23T06:08:12.648Z,15.57
2022-10-23T06:11:18.839Z,15.61
2022-10-23T06:14:32.787Z,15.65
2022-10-23T06:17:36.561Z,15.76
2022-10-23T06:20:42.411Z,15.82
2022-10-23T06:23:52.020Z,15.94
2022-10-23T06:27:32.737Z,16.04
2022-10-23T06:30:55.031Z,16.05
2022-10-23T06:34:00.762Z,16.17
2022-10-23T06:37:07.216Z,16.26
2022-10-23T06:40:31.652Z,16.31
2022-10-23T06:43:39.777Z,16.34
2022-10-23T06:47:00.290Z,16.45
2022-10-23T06:50:27.371Z,16.51
2022-10-23T06:53:31.087Z,16.58
2022-10-23T06:56:43.200Z,16.66
2022-10-23T06:59:50.007Z,16.69
2022-10-23T07:02:54.591Z,16.74
2022-10-23T07:06:01.631Z,16.86
2022-10-23T07:09:05.674Z,16.93
2022-10-23T07:12:29.485Z,17.01
2022-10-23T07:16:13.878Z,17.09
2022-10-23T07:19:18.163Z,17.27
2022-10-23T07:22:35.420Z,17.34
2022-10-23T07:25:45.349Z,17.40
2022-10-23T07:28:57.088Z,17.33
2022-10-23T07:32:04.604Z,17.39
2022-10-23T07:35:17.262Z,17.42
2022-10-23T07:38:35.924Z,17.49
2022-10-23T07:41:39.546Z,17.39
2022-10-23T07:44:43.839Z,17.47
2022-10-23T07:47:53.358Z,17.43
2022-10-23T07:51:03.218Z,17.50
2022-10-23T07:54:11.743Z,17.52
2022-10-23T07:57:34.123Z,17.57
2022-10-23T08:01:05.938Z,17.58
2022-10-23T08:04:14.806Z,17.63
2022-10-23T08:07:29.511Z,17.67
2022-10-23T08:10:35.202Z,17.69
2022-10-23T08:13:39.285Z,17.73
2022-10-23T08:16:44.168Z,17.78
2022-10-23T08:19:54.687Z,17.80
2022-10-23T08:22:58.804Z,17.87
2022-10-23T08:26:05.576Z,17.90
2022-10-23T08:29:09.513Z,17.87
2022-10-23T08:32:13.288Z,17.92
2022-10-23T08:35:32.441Z,18.02
2022-10-23T08:38:36.253Z,18.07
2022-10-23T08:41:48.596Z,18.13
2022-10-23T08:45:02.851Z,18.17
2022-10-23T08:48:19.771Z,18.21
2022-10-23T08:51:53.501Z,18.30
2022-10-23T08:55:16.100Z,18.29
2022-10-23T08:58:29.421Z,18.35
2022-10-23T09:01:43.671Z,18.38
2022-10-23T09:04:49.842Z,18.43
2022-10-23T09:08:08.890Z,18.41
2022-10-23T09:11:23.771Z,18.45
2022-10-23T09:14:42.346Z,18.51
2022-10-23T09:17:47.848Z,18.60
2022-10-23T09:20:54.132Z,18.65
2022-10-23T09:23:58.963Z,18.63
2022-10-23T09:30:07.829Z,18.62
2022-10-23T09:33:18.051Z,18.61
2022-10-23T09:36:24.269Z,18.69
2022-10-23T09:39:32.062Z,18.70
2022-10-23T09:42:35.912Z,18.74
2022-10-23T09:45:42.629Z,18.81
2022-10-23T09:49:00.883Z,18.80
2022-10-23T09:52:25.271Z,18.80
2022-10-23T09:55:30.776Z,18.84
2022-10-23T09:58:38.195Z,18.91
2022-10-23T10:01:49.337Z,18.91
2022-10-23T10:05:25.050Z,18.92
2022-10-23T10:08:40.501Z,18.98
2022-10-23T10:11:51.099Z,18.91
2022-10-23T10:15:04.528Z,18.93
2022-10-23T10:18:17.105Z,18.92
2022-10-23T10:21:26.307Z,19.04
2022-10-23T10:24:35.905Z,19.04
2022-10-23T10:27:53.812Z,19.10
2022-10-23T10:31:10.004Z,19.09
2022-10-23T10:34:19.243Z,19.17
2022-10-23T10:37:36.195Z,19.18
2022-10-23T10:40:44.306Z,19.23
2022-10-23T10:44:03.222Z,19.31
2022-10-23T10:47:18.501Z,19.39
2022-10-23T10:50:31.261Z,19.42
2022-10-23T10:54:07.645Z,19.47
2022-10-23T10:57:22.029Z,19.51
2022-10-23T11:00:29.790Z,19.49
2022-10-23T11:03:41.232Z,19.50
2022-10-23T11:06:50.214Z,19.64
2022-10-23T11:09:55.977Z,19.69
2022-10-23T11:13:01.107Z,19.77
2022-10-23T11:16:12.926Z,19.77
2022-10-23T11:19:22.586Z,19.78
2022-10-23T11:22:35.084Z,19.85
2022-10-23T11:25:56.008Z,19.85
2022-10-23T11:29:19.045Z,19.90
2022-10-23T11:32:39.950Z,19.98
2022-10-23T11:36:07.820Z,20.00
2022-10-23T11:39:23.036Z,20.11
2022-10-23T11:42:33.943Z,20.16
2022-10-23T11:45:39.398Z,20.26
2022-10-23T11:48:48.264Z,20.32
2022-10-23T11:52:08.218Z,20.34
2022-10-23T11:55:57.489Z,20.36
2022-10-23T11:59:22.263Z,20.35
2022-10-23T12:02:33.726Z,20.46
2022-10-23T12:05:40.583Z,20.48
2022-10-23T12:08:55.457Z,20.57
2022-10-23T12:12:17.643Z,20.62
2022-10-23T12:15:24.914Z,20.70
2022-10-23T12:18:31.029Z,20.75
2022-10-23T12:21:41.477Z,20.81
2022-10-23T12:25:02.911Z,20.80
2022-10-23T12:28:14.258Z,20.87
2022-10-23T12:31:35.233Z,20.88
2022-10-23T12:40:30.807Z,20.91
2022-10-23T12:43:40.849Z,21.06
2022-10-23T12:46:51.003Z,21.00
2022-10-23T12:49:54.903Z,21.06
2022-10-23T12:53:02.500Z,21.04
2022-10-23T12:56:09.481Z,21.11
2022-10-23T12:59:20.310Z,21.09
2022-10-23T13:02:26.784Z,21.10
2022-10-23T13:05:31.754Z,21.16
2022-10-23T13:08:40.796Z,21.19
2022-10-23T13:12:22.599Z,21.13
2022-10-23T13:15:39.536Z,21.13
2022-10-23T13:18:43.767Z,21.18
2022-10-23T13:21:47.811Z,21.19
2022-10-23T13:24:52.224Z,21.21
2022-10-23T13:28:21.443Z,21.12
2022-10-23T13:31:40.985Z,21.15
2022-10-23T13:35:03.715Z,21.15
2022-10-23T13:38:16.297Z,21.14
2022-10-23T13:41:21.663Z,21.18
2022-10-23T13:44:26.516Z,21.09
2022-10-23T13:47:31.897Z,21.15
2022-10-23T13:50:37.670Z,21.17
2022-10-23T13:53:41.469Z,21.17
2022-10-23T13:56:47.367Z,21.20
2022-10-23T13:59:54.185Z,21.16
2022-10-23T14:03:01.028Z,21.11
2022-10-23T14:06:07.910Z,21.12
2022-10-23T14:09:15.035Z,21.08
2022-10-23T14:12:19.498Z,21.13
2022-10-23T14:15:24.113Z,21.17
2022-10-23T14:18:30.479Z,21.20
2022-10-23T14:21:34.921Z,21.23
2022-10-23T14:24:39.739Z,21.16
2022-10-23T14:27:43.826Z,21.13
2022-10-23T14:30:47.387Z,21.11
2022-10-23T14:33:56.995Z,21.01
2022-10-23T14:37:08.791Z,20.99
2022-10-23T14:40:13.790Z,21.00
2022-10-23T14:43:17.395Z,21.03
2022-10-23T14:46:23.611Z,21.00
2022-10-23T14:49:28.702Z,21.01
2022-10-23T14:52:32.716Z,20.95
2022-10-23T14:55:36.527Z,20.91
2022-10-23T14:58:42.680Z,20.89
2022-10-23T15:01:48.616Z,20.87
2022-10-23T15:04:54.683Z,20.83
2022-10-23T15:07:59.196Z,20.81
2022-10-23T15:11:05.708Z,20.77
2022-10-23T15:14:11.800Z,20.71
2022-10-23T15:17:16.258Z,20.65
2022-10-23T15:20:23.694Z,20.59
2022-10-23T15:23:27.638Z,20.49
2022-10-23T15:26:32.427Z,20.46
2022-10-23T15:29:36.509Z,20.43
2022-10-23T15:32:40.552Z,20.36
2022-10-23T15:35:46.115Z,20.30
2022-10-23T15:38:50.307Z,20.23
2022-10-23T15:41:58.207Z,20.17
2022-10-23T15:45:02.585Z,20.10
2022-10-23T15:48:08.942Z,20.03
2022-10-23T15:51:15.663Z,20.00
2022-10-23T15:54:26.962Z,19.92
2022-10-23T15:57:32.996Z,19.86
2022-10-23T16:00:38.458Z,19.80
2022-10-23T16:03:43.919Z,19.67
2022-10-23T16:06:52.024Z,19.58
2022-10-23T16:09:56.557Z,19.53
2022-10-23T16:13:01.073Z,19.50
2022-10-23T16:16:05.038Z,19.41
2022-10-23T16:19:08.929Z,19.39
2022-10-23T16:22:15.112Z,19.23
2022-10-23T16:25:19.166Z,19.15
2022-10-23T16:28:23.048Z,19.10
2022-10-23T16:31:27.738Z,18.90
2022-10-23T16:34:31.351Z,18.80
2022-10-23T16:37:37.006Z,18.85
2022-10-23T16:40:52.030Z,18.80
2022-10-23T16:44:18.810Z,18.55
2022-10-23T16:47:43.066Z,18.60
2022-10-23T16:50:47.370Z,18.56
2022-10-23T16:53:52.952Z,18.51
2022-10-23T16:56:58.832Z,18.49
2022-10-23T17:00:02.536Z,18.29
2022-10-23T17:03:10.898Z,18.38
2022-10-23T17:06:18.176Z,18.29
2022-10-23T17:09:23.727Z,18.06
2022-10-23T17:12:30.410Z,18.05
2022-10-23T17:15:34.542Z,17.83
2022-10-23T17:18:42.877Z,17.74
2022-10-23T17:21:49.998Z,17.58
2022-10-23T17:24:55.020Z,17.74
2022-10-23T17:27:59.641Z,17.74
2022-10-23T17:31:04.392Z,17.49
2022-10-23T17:34:12.023Z,17.59
2022-10-23T17:37:17.429Z,17.49
2022-10-23T17:40:33.085Z,17.38
2022-10-23T17:43:37.439Z,17.43
2022-10-23T17:46:41.410Z,17.41
2022-10-23T17:49:46.162Z,17.42
2022-10-23T17:52:50.542Z,17.38
2022-10-23T17:55:55.940Z,17.32
2022-10-23T17:59:03.458Z,17.22
2022-10-23T18:02:08.574Z,17.29
2022-10-23T18:05:13.180Z,17.29
2022-10-23T18:08:17.803Z,17.19
2022-10-23T18:11:26.142Z,17.21
2022-10-23T18:14:31.709Z,17.14
2022-10-23T18:17:36.880Z,16.97
2022-10-23T18:20:42.010Z,16.97
2022-10-23T18:23:46.402Z,16.90
2022-10-23T18:26:52.764Z,16.84
2022-10-23T18:29:58.867Z,16.91
2022-10-23T18:33:03.258Z,16.87
2022-10-23T18:36:18.698Z,16.83
2022-10-23T18:39:29.375Z,16.65
2022-10-23T18:42:37.762Z,16.67
2022-10-23T18:45:43.927Z,16.65
2022-10-23T18:48:50.725Z,16.59
2022-10-23T18:51:56.382Z,16.49
2022-10-23T18:55:00.675Z,16.56
2022-10-23T18:58:05.930Z,16.40
2022-10-23T19:01:25.876Z,16.03
2022-10-23T19:04:35.555Z,16.05
2022-10-23T19:07:45.744Z,16.09
2022-10-23T19:10:54.055Z,16.14
2022-10-23T19:13:59.114Z,16.15
2022-10-23T19:17:07.837Z,16.16
2022-10-23T19:20:15.688Z,16.14
2022-10-23T19:23:19.928Z,16.27
2022-10-23T19:26:23.770Z,16.30
2022-10-23T19:29:31.632Z,16.33
2022-10-23T19:32:37.323Z,16.43
2022-10-23T19:35:41.157Z,16.42
2022-10-23T19:38:45.061Z,15.92
2022-10-23T19:41:51.720Z,16.07
2022-10-23T19:44:57.842Z,16.16
2022-10-23T19:48:01.637Z,16.06
2022-10-23T19:51:09.807Z,16.12
2022-10-23T19:54:13.793Z,16.12
2022-10-23T19:57:19.320Z,16.10
2022-10-23T20:00:29.099Z,16.20
2022-10-23T20:03:33.432Z,16.08
2022-10-23T20:06:38.784Z,15.84
2022-10-23T20:09:43.047Z,15.64
2022-10-23T20:12:56.402Z,15.59
2022-10-23T20:16:09.065Z,15.86
2022-10-23T20:19:14.934Z,15.92
2022-10-23T20:22:19.601Z,15.80
2022-10-23T20:25:23.221Z,15.92
2022-10-23T20:28:27.523Z,15.83
2022-10-23T20:31:36.694Z,15.76
2022-10-23T20:34:41.476Z,15.67
2022-10-23T20:37:45.923Z,15.76
2022-10-23T20:40:50.451Z,15.67
2022-10-23T20:43:56.804Z,15.79
2022-10-23T20:47:02.435Z,15.71
2022-10-23T20:50:06.787Z,15.75
2022-10-23T20:53:11.430Z,15.78
2022-10-23T20:56:18.561Z,15.63
2022-10-23T20:59:22.786Z,15.37
2022-10-23T21:02:30.193Z,15.51
2022-10-23T21:05:36.188Z,15.58
2022-10-23T21:08:41.210Z,15.52
2022-10-23T21:11:45.374Z,15.36
2022-10-23T21:14:49.105Z,15.18
2022-10-23T21:17:56.867Z,15.36
2022-10-23T21:21:03.310Z,15.14
2022-10-23T21:24:09.778Z,15.18
2022-10-23T21:27:15.228Z,15.19
2022-10-23T21:30:20.591Z,15.11
2022-10-23T21:33:26.145Z,15.14
2022-10-23T21:36:32.227Z,15.17
2022-10-23T21:39:37.640Z,15.28
2022-10-23T21:42:41.451Z,15.27
2022-10-23T21:45:45.025Z,15.13
2022-10-23T21:48:52.995Z,15.10
2022-10-23T21:51:57.820Z,15.02
2022-10-23T21:55:02.747Z,14.99
2022-10-23T21:58:08.072Z,14.92
2022-10-23T22:01:14.844Z,14.69
2022-10-23T22:04:22.238Z,14.64
2022-10-23T22:07:26.121Z,14.70
2022-10-23T22:10:29.654Z,14.88
2022-10-23T22:13:33.804Z,14.82
2022-10-23T22:16:44.610Z,14.81
2022-10-23T22:19:50.044Z,14.76
2022-10-23T22:22:53.610Z,14.74
2022-10-23T22:25:57.732Z,14.55
2022-10-23T22:29:03.285Z,14.44
2022-10-23T22:32:08.687Z,14.59
2022-10-23T22:35:14.045Z,14.42
2022-10-23T22:38:18.000Z,14.51
2022-10-23T22:41:22.183Z,14.50
2022-10-23T22:44:27.204Z,14.38
2022-10-23T22:47:31.683Z,14.26
2022-10-23T22:50:37.338Z,14.39
2022-10-23T22:53:41.081Z,14.35
2022-10-23T22:56:45.106Z,14.42
2022-10-23T22:59:48.686Z,14.43
2022-10-23T23:02:52.647Z,14.45
2022-10-23T23:05:58.491Z,14.58
2022-10-23T23:09:03.014Z,14.57
2022-10-23T23:12:07.135Z,14.57
2022-10-23T23:15:11.318Z,14.63
2022-10-23T23:18:15.201Z,14.25
2022-10-23T23:21:21.022Z,14.36
2022-10-23T23:24:24.887Z,14.35
2022-10-23T23:27:28.838Z,14.38
2022-10-23T23:30:35.212Z,14.02
2022-10-23T23:33:39.492Z,14.07
2022-10-23T23:36:46.916Z,13.93
2022-10-23T23:39:50.937Z,14.01
2022-10-23T23:42:54.531Z,13.91
2022-10-23T23:45:59.743Z,13.97
2022-10-23T23:49:03.446Z,13.91
2022-10-23T23:52:09.895Z,13.97
2022-10-23T23:55:14.507Z,14.07
2022-10-23T23:58:19.870Z,13.95
